If you wish to contribute or participate in the discussions about articles you are invited to join SKYbrary as a registered user

 Actions

Dillingham Airport

From SKYbrary Wiki

PADL
Airport
ICAO: PADL
Summary
Name Dillingham Airport
Region North America
Territory Alaska US.gif
Location Dillingham
Serving
Coordinates 59° 2' 43.51" N, 158° 30' 14.04" W
Runways
Designator Length Width Surface ROPS
1/19 1951 m6,400.919 ft
46 m150.919 ft
ASP yes/yes


METAR
Observation PADL 171456Z AUTO 00000KT 9SM -RA OVC070 09/09 A2975 RMK AO2 SLP078 P0007 60008 T00940094 56007
Station Dillingham, Dillingham Airport
Date/Time 17 September 2019 14:56:00
Wind direction
Wind speed 00 kts
Lowest cloud amount overcast
Temperature 9.4°C
Dew point 9.4°C
Humidity 100%
QNH hPa
Weather condition light rain

BS
Tag(s) Bird Strike
BS
Tag(s) Non Avian Wildlife Hazards to Aircraft
CFIT
Tag(s) Altimeter Temperature Error Correction

Dillingham Airport

ICAO: PADL IATA: DLG

Description

Regional airport serving Dillingham, Alaska.

Climatology

Subarctic climate (Köppen climate classification Dfc) - long, usually very cold winters, and short, cool to mild summers.

Maps

Terrain

Loading map...

Airport Layout

Loading map...


Accidents & Serious Incidents at or in vicinity of PADL

None on SKYbrary